createdAt,value
2022-10-14T00:02:00.558Z,13.02
2022-10-14T00:04:27.448Z,13.09
2022-10-14T00:06:54.080Z,13.13
2022-10-14T00:09:20.741Z,13.02
2022-10-14T00:11:47.921Z,13.05
2022-10-14T00:14:17.870Z,13.10
2022-10-14T00:16:46.904Z,13.12
2022-10-14T00:19:15.284Z,13.05
2022-10-14T00:21:45.729Z,12.97
2022-10-14T00:24:14.255Z,12.92
2022-10-14T00:26:41.039Z,13.00
2022-10-14T00:29:13.168Z,13.01
2022-10-14T00:31:39.976Z,13.00
2022-10-14T00:34:06.638Z,13.03
2022-10-14T00:36:33.287Z,13.03
2022-10-14T00:39:00.109Z,13.04
2022-10-14T00:41:32.707Z,13.05
2022-10-14T00:44:07.275Z,13.03
2022-10-14T00:46:37.193Z,13.03
2022-10-14T00:49:13.536Z,13.03
2022-10-14T00:51:42.763Z,13.04
2022-10-14T00:54:12.789Z,13.05
2022-10-14T00:56:39.749Z,13.04
2022-10-14T00:59:07.760Z,13.03
2022-10-14T01:01:34.584Z,13.03
2022-10-14T01:04:01.323Z,13.04
2022-10-14T01:06:43.016Z,13.03
2022-10-14T01:09:24.445Z,13.03
2022-10-14T01:12:29.475Z,13.02
2022-10-14T01:15:05.030Z,13.01
2022-10-14T01:18:15.662Z,13.00
2022-10-14T01:20:51.466Z,12.97
2022-10-14T01:23:39.996Z,12.98
2022-10-14T01:26:24.509Z,12.99
2022-10-14T01:29:02.551Z,12.97
2022-10-14T01:31:33.877Z,12.96
2022-10-14T01:34:05.288Z,12.97
2022-10-14T01:36:37.517Z,12.97
2022-10-14T01:39:08.173Z,12.96
2022-10-14T01:41:42.228Z,12.95
2022-10-14T01:44:11.710Z,12.93
2022-10-14T01:46:40.726Z,12.94
2022-10-14T01:49:20.646Z,12.96
2022-10-14T01:51:55.160Z,12.94
2022-10-14T01:54:33.721Z,12.93
2022-10-14T01:57:04.620Z,12.93
2022-10-14T01:59:33.027Z,12.93
2022-10-14T02:02:02.906Z,12.93
2022-10-14T02:04:29.586Z,12.94
2022-10-14T02:07:08.493Z,12.92
2022-10-14T02:09:47.075Z,12.90
2022-10-14T02:12:26.482Z,12.84
2022-10-14T02:15:07.410Z,12.87
2022-10-14T02:17:43.297Z,12.82
2022-10-14T02:20:28.632Z,12.86
2022-10-14T02:23:02.143Z,12.83
2022-10-14T02:25:39.320Z,12.86
2022-10-14T02:28:09.275Z,12.85
2022-10-14T02:30:41.714Z,12.84
2022-10-14T02:33:08.714Z,12.85
2022-10-14T02:35:38.570Z,12.85
2022-10-14T02:38:07.061Z,12.85
2022-10-14T02:40:38.724Z,12.85
2022-10-14T02:43:08.067Z,12.83
2022-10-14T02:45:35.119Z,12.82
2022-10-14T02:48:01.768Z,12.83
2022-10-14T02:50:28.555Z,12.82
2022-10-14T02:52:55.168Z,12.82
2022-10-14T02:55:22.421Z,12.81
2022-10-14T02:57:51.904Z,12.82
2022-10-14T03:00:18.577Z,12.80
2022-10-14T03:02:45.228Z,12.60
2022-10-14T03:05:12.119Z,12.69
2022-10-14T03:07:40.025Z,12.73
2022-10-14T03:10:06.987Z,12.75
2022-10-14T03:12:33.664Z,12.76
2022-10-14T03:15:00.289Z,12.72
2022-10-14T03:17:27.019Z,12.76
2022-10-14T03:19:53.708Z,12.76
2022-10-14T03:22:20.640Z,12.77
2022-10-14T03:24:47.427Z,12.76
2022-10-14T03:27:14.141Z,12.75
2022-10-14T03:29:40.880Z,12.75
2022-10-14T03:32:07.655Z,12.75
2022-10-14T03:34:34.286Z,12.75
2022-10-14T03:37:01.110Z,12.73
2022-10-14T03:39:28.061Z,12.73
2022-10-14T03:41:54.744Z,12.73
2022-10-14T03:44:21.429Z,12.72
2022-10-14T03:46:48.179Z,12.71
2022-10-14T03:49:14.823Z,12.71
2022-10-14T03:51:41.503Z,12.71
2022-10-14T03:54:08.382Z,12.71
2022-10-14T03:56:35.060Z,12.69
2022-10-14T03:59:01.664Z,12.69
2022-10-14T04:01:28.386Z,12.69
2022-10-14T04:03:55.009Z,12.64
2022-10-14T04:06:21.695Z,12.67
2022-10-14T04:08:48.486Z,12.67
2022-10-14T04:11:15.278Z,12.66
2022-10-14T04:13:41.881Z,12.66
2022-10-14T04:16:10.336Z,12.66
2022-10-14T04:18:37.099Z,12.65
2022-10-14T04:21:09.342Z,12.64
2022-10-14T04:23:36.199Z,12.65
2022-10-14T04:26:05.426Z,12.64
2022-10-14T04:28:33.338Z,12.63
2022-10-14T04:31:00.571Z,12.62
2022-10-14T04:33:27.277Z,12.61
2022-10-14T04:36:01.888Z,12.62
2022-10-14T04:38:29.359Z,12.59
2022-10-14T04:40:56.170Z,12.57
2022-10-14T04:43:23.106Z,12.60
2022-10-14T04:45:50.506Z,12.59
2022-10-14T04:48:18.259Z,12.57
2022-10-14T04:50:44.996Z,12.58
2022-10-14T04:53:13.749Z,12.57
2022-10-14T04:55:41.094Z,12.56
2022-10-14T04:58:07.892Z,12.55
2022-10-14T05:00:34.556Z,12.54
2022-10-14T05:03:01.190Z,12.54
2022-10-14T05:05:27.839Z,12.53
2022-10-14T05:07:54.485Z,12.54
2022-10-14T05:10:21.927Z,12.54
2022-10-14T05:12:49.293Z,12.51
2022-10-14T05:15:16.371Z,12.52
2022-10-14T05:17:44.875Z,12.52
2022-10-14T05:20:12.358Z,12.50
2022-10-14T05:22:45.481Z,12.51
2022-10-14T05:25:12.372Z,12.49
2022-10-14T05:27:39.419Z,12.49
2022-10-14T05:30:06.712Z,12.44
2022-10-14T05:32:33.464Z,12.48
2022-10-14T05:35:00.104Z,12.47
2022-10-14T05:37:26.887Z,12.47
2022-10-14T05:39:55.233Z,12.47
2022-10-14T05:42:22.266Z,12.46
2022-10-14T05:44:49.225Z,12.47
2022-10-14T05:47:15.937Z,12.46
2022-10-14T05:49:42.919Z,12.45
2022-10-14T05:52:09.707Z,12.46
2022-10-14T05:54:36.406Z,12.45
2022-10-14T05:57:06.352Z,12.45
2022-10-14T05:59:34.818Z,12.44
2022-10-14T06:02:02.495Z,12.44
2022-10-14T06:04:29.383Z,12.44
2022-10-14T06:06:59.342Z,12.44
2022-10-14T06:09:26.091Z,12.44
2022-10-14T06:11:53.026Z,12.43
2022-10-14T06:14:19.638Z,12.44
2022-10-14T06:16:49.806Z,12.44
2022-10-14T06:19:16.624Z,12.44
2022-10-14T06:21:44.945Z,12.44
2022-10-14T06:24:11.778Z,12.44
2022-10-14T06:26:38.441Z,12.44
2022-10-14T06:29:05.255Z,12.46
2022-10-14T06:31:32.658Z,12.46
2022-10-14T06:33:59.618Z,12.46
2022-10-14T06:36:26.829Z,12.45
2022-10-14T06:38:53.435Z,12.45
2022-10-14T06:41:20.119Z,12.38
2022-10-14T06:43:46.761Z,12.43
2022-10-14T06:46:13.441Z,12.44
2022-10-14T06:48:40.171Z,12.43
2022-10-14T06:51:07.031Z,12.44
2022-10-14T06:53:33.682Z,12.44
2022-10-14T06:56:02.914Z,12.44
2022-10-14T06:58:30.227Z,12.44
2022-10-14T07:01:03.121Z,12.44
2022-10-14T07:03:30.103Z,12.45
2022-10-14T07:05:56.835Z,12.45
2022-10-14T07:08:23.439Z,12.47
2022-10-14T07:10:50.171Z,12.48
2022-10-14T07:13:16.935Z,12.49
2022-10-14T07:15:43.628Z,12.44
2022-10-14T07:18:10.299Z,12.54
2022-10-14T07:20:36.951Z,12.55
2022-10-14T07:23:03.688Z,12.54
2022-10-14T07:25:30.460Z,12.58
2022-10-14T07:27:57.090Z,12.60
2022-10-14T07:30:23.886Z,12.62
2022-10-14T07:32:50.815Z,12.48
2022-10-14T07:35:19.138Z,12.59
2022-10-14T07:37:46.480Z,12.62
2022-10-14T07:40:13.647Z,12.65
2022-10-14T07:42:40.309Z,12.63
2022-10-14T07:45:10.695Z,12.68
2022-10-14T07:47:37.402Z,12.69
2022-10-14T07:50:04.319Z,12.71
2022-10-14T07:52:31.011Z,12.73
2022-10-14T07:54:57.802Z,12.79
2022-10-14T07:57:25.116Z,12.81
2022-10-14T07:59:52.699Z,12.76
2022-10-14T08:02:19.823Z,12.82
2022-10-14T08:04:47.314Z,12.83
2022-10-14T08:07:17.059Z,12.86
2022-10-14T08:09:43.996Z,12.90
2022-10-14T08:12:10.795Z,12.90
2022-10-14T08:14:37.436Z,12.92
2022-10-14T08:17:04.138Z,12.94
2022-10-14T08:19:31.093Z,12.96
2022-10-14T08:21:57.858Z,13.01
2022-10-14T08:24:24.510Z,13.01
2022-10-14T08:26:56.583Z,13.04
2022-10-14T08:29:23.872Z,13.06
2022-10-14T08:31:51.544Z,13.07
2022-10-14T08:34:21.823Z,13.09
2022-10-14T08:36:49.096Z,13.13
2022-10-14T08:39:18.493Z,13.15
2022-10-14T08:42:16.344Z,13.19
2022-10-14T08:44:50.816Z,13.20
2022-10-14T08:47:23.904Z,13.26
2022-10-14T08:50:02.824Z,13.26
2022-10-14T08:52:43.118Z,13.27
2022-10-14T08:55:39.784Z,13.32
2022-10-14T08:58:15.118Z,13.33
2022-10-14T09:00:45.910Z,13.32
2022-10-14T09:03:24.835Z,13.34
2022-10-14T09:05:58.855Z,13.41
2022-10-14T09:08:33.512Z,13.44
2022-10-14T09:11:00.379Z,13.46
2022-10-14T09:13:39.914Z,13.50
2022-10-14T09:16:17.599Z,13.52
2022-10-14T09:19:02.809Z,13.51
2022-10-14T09:21:53.029Z,13.56
2022-10-14T09:24:27.171Z,13.65
2022-10-14T09:27:11.764Z,13.89
2022-10-14T09:29:46.960Z,13.83
2022-10-14T09:32:27.845Z,13.97
2022-10-14T09:34:56.315Z,14.12
2022-10-14T09:37:33.117Z,14.01
2022-10-14T09:40:03.547Z,14.02
2022-10-14T09:42:42.585Z,14.06
2022-10-14T09:45:13.397Z,14.11
2022-10-14T09:47:45.935Z,14.12
2022-10-14T09:50:22.253Z,14.12
2022-10-14T09:52:55.688Z,14.22
2022-10-14T09:55:24.460Z,14.28
2022-10-14T09:58:05.433Z,14.30
2022-10-14T10:00:34.457Z,14.34
2022-10-14T10:03:04.883Z,14.38
2022-10-14T10:05:33.531Z,14.41
2022-10-14T10:08:18.932Z,14.39
2022-10-14T10:11:09.836Z,14.45
2022-10-14T10:13:40.221Z,14.48
2022-10-14T10:16:17.782Z,14.53
2022-10-14T10:18:44.490Z,14.57
2022-10-14T10:21:24.949Z,14.62
2022-10-14T10:24:03.597Z,14.71
2022-10-14T10:26:33.653Z,14.69
2022-10-14T10:29:05.344Z,14.72
2022-10-14T10:32:01.211Z,14.79
2022-10-14T10:34:45.988Z,14.83
2022-10-14T10:37:41.907Z,14.89
2022-10-14T10:40:31.566Z,14.99
2022-10-14T10:43:18.665Z,15.05
2022-10-14T10:46:17.645Z,15.08
2022-10-14T10:48:51.529Z,15.09
2022-10-14T10:51:27.791Z,15.17
2022-10-14T10:54:07.722Z,15.23
2022-10-14T10:56:51.443Z,15.28
2022-10-14T10:59:30.484Z,15.30
2022-10-14T11:02:33.523Z,15.30
2022-10-14T11:05:10.996Z,15.34
2022-10-14T11:08:07.780Z,15.38
2022-10-14T11:11:36.126Z,15.41
2022-10-14T11:14:02.886Z,15.42
2022-10-14T11:16:35.670Z,15.47
2022-10-14T11:19:21.176Z,15.51
2022-10-14T11:22:14.076Z,15.55
2022-10-14T11:25:07.845Z,15.57
2022-10-14T11:27:49.009Z,15.51
2022-10-14T11:30:17.797Z,15.60
2022-10-14T11:33:15.815Z,15.61
2022-10-14T11:35:51.614Z,15.58
2022-10-14T11:38:20.858Z,15.61
2022-10-14T11:41:18.200Z,15.61
2022-10-14T11:43:58.184Z,15.59
2022-10-14T11:46:29.258Z,15.62
2022-10-14T11:49:04.210Z,15.61
2022-10-14T11:51:35.954Z,15.67
2022-10-14T11:54:04.447Z,15.72
2022-10-14T11:56:36.935Z,15.77
2022-10-14T11:59:38.593Z,15.78
2022-10-14T12:02:17.858Z,15.84
2022-10-14T12:04:52.660Z,15.90
2022-10-14T12:07:36.049Z,15.94
2022-10-14T12:10:13.826Z,15.96
2022-10-14T12:12:41.614Z,15.92
2022-10-14T12:15:17.925Z,15.96
2022-10-14T12:18:04.681Z,15.95
2022-10-14T12:20:38.705Z,15.97
2022-10-14T12:23:08.630Z,15.98
2022-10-14T12:25:51.580Z,15.93
2022-10-14T12:28:20.139Z,15.85
2022-10-14T12:30:47.855Z,15.86
2022-10-14T12:33:22.546Z,15.65
2022-10-14T12:36:01.988Z,15.77
2022-10-14T12:38:30.678Z,15.87
2022-10-14T12:41:33.538Z,15.83
2022-10-14T12:44:05.446Z,15.77
2022-10-14T12:46:32.205Z,15.85
2022-10-14T12:49:00.487Z,15.68
2022-10-14T12:51:27.469Z,15.64
2022-10-14T12:54:07.164Z,15.78
2022-10-14T12:56:38.508Z,15.44
2022-10-14T12:59:08.937Z,15.56
2022-10-14T13:01:36.778Z,15.67
2022-10-14T13:04:08.257Z,15.74
2022-10-14T13:06:44.335Z,15.76
2022-10-14T13:09:15.180Z,15.79
2022-10-14T13:11:44.107Z,15.79
2022-10-14T13:14:55.079Z,15.82
2022-10-14T13:17:46.808Z,15.78
2022-10-14T13:20:35.631Z,15.63
2022-10-14T13:23:40.338Z,15.69
2022-10-14T13:26:22.670Z,15.69
2022-10-14T13:29:11.195Z,15.70
2022-10-14T13:32:22.730Z,15.71
2022-10-14T13:35:13.120Z,15.70
2022-10-14T13:37:46.101Z,15.71
2022-10-14T13:40:29.239Z,15.74
2022-10-14T13:43:15.414Z,15.73
2022-10-14T13:45:45.418Z,15.74
2022-10-14T13:48:37.437Z,15.76
2022-10-14T13:51:36.697Z,15.75
2022-10-14T13:54:23.021Z,15.73
2022-10-14T14:02:44.191Z,15.72
2022-10-14T14:05:16.348Z,15.69
2022-10-14T14:10:31.312Z,15.72
2022-10-14T14:13:02.943Z,15.72
2022-10-14T14:15:33.598Z,15.72
2022-10-14T14:18:00.234Z,15.73
2022-10-14T14:20:34.091Z,15.75
2022-10-14T14:23:00.736Z,15.71
2022-10-14T14:25:35.770Z,15.85
2022-10-14T14:28:06.172Z,16.37
2022-10-14T14:30:37.576Z,16.03
2022-10-14T14:33:12.312Z,15.94
2022-10-14T14:35:40.920Z,15.87
2022-10-14T14:38:25.162Z,15.85
2022-10-14T14:41:01.426Z,15.84
2022-10-14T14:43:34.747Z,15.81
2022-10-14T14:46:03.061Z,15.81
2022-10-14T14:48:31.394Z,15.82
2022-10-14T14:50:58.691Z,15.80
2022-10-14T14:53:31.855Z,15.81
2022-10-14T14:56:14.382Z,15.81
2022-10-14T14:58:47.321Z,15.79
2022-10-14T15:01:22.610Z,15.78
2022-10-14T15:04:12.043Z,15.76
2022-10-14T15:06:41.091Z,15.65
2022-10-14T15:09:35.998Z,15.68
2022-10-14T15:12:06.101Z,15.69
2022-10-14T15:14:47.772Z,15.68
2022-10-14T15:17:29.410Z,15.70
2022-10-14T15:19:58.177Z,15.69
2022-10-14T15:22:32.109Z,15.64
2022-10-14T15:25:21.729Z,15.66
2022-10-14T15:28:02.172Z,15.62
2022-10-14T15:30:32.889Z,15.63
2022-10-14T15:33:02.119Z,15.61
2022-10-14T15:35:29.701Z,15.62
2022-10-14T15:37:57.147Z,15.61
2022-10-14T15:40:28.794Z,15.59
2022-10-14T15:42:55.952Z,15.58
2022-10-14T15:45:23.288Z,15.56
2022-10-14T15:47:54.451Z,15.54
2022-10-14T15:50:26.008Z,15.54
2022-10-14T15:52:54.177Z,15.52
2022-10-14T15:55:30.149Z,15.52
2022-10-14T15:57:57.326Z,15.49
2022-10-14T16:00:26.893Z,15.49
2022-10-14T16:03:02.000Z,15.48
2022-10-14T16:05:29.587Z,15.46
2022-10-14T16:07:57.482Z,15.46
2022-10-14T16:10:28.115Z,15.45
2022-10-14T16:12:57.371Z,15.42
2022-10-14T16:15:43.109Z,15.42
2022-10-14T16:18:09.776Z,15.35
2022-10-14T16:20:36.484Z,15.34
2022-10-14T16:23:04.744Z,15.34
2022-10-14T16:25:35.438Z,15.33
2022-10-14T16:28:04.287Z,15.30
2022-10-14T16:30:33.102Z,15.30
2022-10-14T16:32:59.913Z,15.29
2022-10-14T16:35:26.581Z,15.28
2022-10-14T16:37:53.295Z,15.26
2022-10-14T16:40:20.048Z,15.25
2022-10-14T16:42:47.016Z,15.23
2022-10-14T16:45:14.124Z,15.19
2022-10-14T16:47:41.301Z,15.19
2022-10-14T16:50:09.377Z,15.17
2022-10-14T16:52:54.972Z,15.14
2022-10-14T16:55:22.553Z,15.13
2022-10-14T16:57:49.702Z,15.13
2022-10-14T17:02:45.499Z,15.10
2022-10-14T17:05:12.235Z,15.08
2022-10-14T17:07:38.976Z,15.07
2022-10-14T17:10:06.430Z,15.06
2022-10-14T17:12:33.797Z,15.04
2022-10-14T17:15:00.517Z,15.03
2022-10-14T17:17:30.366Z,15.01
2022-10-14T17:19:57.009Z,14.97
2022-10-14T17:22:24.400Z,14.96
2022-10-14T17:24:51.294Z,14.95
2022-10-14T17:27:24.289Z,14.94
2022-10-14T17:29:51.219Z,14.92
2022-10-14T17:32:18.375Z,14.89
2022-10-14T17:34:45.238Z,14.88
2022-10-14T17:37:11.926Z,14.88
2022-10-14T17:39:38.765Z,14.86
2022-10-14T17:42:05.555Z,14.84
2022-10-14T17:44:33.273Z,14.84
2022-10-14T17:47:01.356Z,14.80
2022-10-14T17:49:29.513Z,14.71
2022-10-14T17:51:56.147Z,14.80
2022-10-14T17:54:22.772Z,14.77
2022-10-14T17:56:49.645Z,14.77
2022-10-14T17:59:16.335Z,14.69
2022-10-14T18:02:01.706Z,14.72
2022-10-14T18:04:29.851Z,14.73
2022-10-14T18:06:59.803Z,14.65
2022-10-14T18:09:26.508Z,14.68
2022-10-14T18:12:08.272Z,14.55
2022-10-14T18:14:36.113Z,14.62
2022-10-14T18:17:02.945Z,14.50
2022-10-14T18:19:29.650Z,14.58
2022-10-14T18:21:56.400Z,14.55
2022-10-14T18:24:23.641Z,14.58
2022-10-14T18:26:51.107Z,14.59
2022-10-14T18:29:17.785Z,14.59
2022-10-14T18:31:44.712Z,14.59
2022-10-14T18:34:11.825Z,14.59
2022-10-14T18:36:41.424Z,14.57
2022-10-14T18:39:11.406Z,14.57
2022-10-14T18:41:38.399Z,14.57
2022-10-14T18:44:06.355Z,14.57
2022-10-14T18:46:37.767Z,14.56
2022-10-14T18:49:06.618Z,14.55
2022-10-14T18:51:36.425Z,14.54
2022-10-14T18:54:06.581Z,14.53
2022-10-14T18:56:36.710Z,14.52
2022-10-14T18:59:09.165Z,14.52
2022-10-14T19:01:37.512Z,14.51
2022-10-14T19:04:09.356Z,14.49
2022-10-14T19:06:36.503Z,14.49
2022-10-14T19:09:04.364Z,14.49
2022-10-14T19:11:33.697Z,14.48
2022-10-14T19:14:03.739Z,14.47
2022-10-14T19:16:34.115Z,14.47
2022-10-14T19:19:15.218Z,14.46
2022-10-14T19:21:42.219Z,14.45
2022-10-14T19:24:10.512Z,14.45
2022-10-14T19:26:43.942Z,14.41
2022-10-14T19:29:14.209Z,14.41
2022-10-14T19:31:44.339Z,14.41
2022-10-14T19:34:13.784Z,14.40
2022-10-14T19:36:41.580Z,14.40
2022-10-14T19:39:11.473Z,14.40
2022-10-14T19:41:43.072Z,14.39
2022-10-14T19:44:11.452Z,14.38
2022-10-14T19:46:38.691Z,14.39
2022-10-14T19:49:05.785Z,14.36
2022-10-14T19:51:33.450Z,14.36
2022-10-14T19:54:00.676Z,14.35
2022-10-14T19:56:28.298Z,14.32
2022-10-14T19:58:57.522Z,14.30
2022-10-14T20:01:27.121Z,14.31
2022-10-14T20:03:55.147Z,14.31
2022-10-14T20:06:23.950Z,14.31
2022-10-14T20:08:51.643Z,14.30
2022-10-14T20:11:22.753Z,14.30
2022-10-14T20:13:50.127Z,14.30
2022-10-14T20:16:17.650Z,14.30
2022-10-14T20:18:47.567Z,14.28
2022-10-14T20:21:16.197Z,14.28
2022-10-14T20:23:43.813Z,14.25
2022-10-14T20:26:18.632Z,14.26
2022-10-14T20:28:46.509Z,14.27
2022-10-14T20:31:20.757Z,14.27
2022-10-14T20:33:47.876Z,14.26
2022-10-14T20:36:19.756Z,14.26
2022-10-14T20:38:47.634Z,14.27
2022-10-14T20:41:20.279Z,14.25
2022-10-14T20:43:47.697Z,14.25
2022-10-14T20:46:15.451Z,14.24
2022-10-14T20:48:42.969Z,14.24
2022-10-14T20:51:13.352Z,14.23
2022-10-14T20:56:11.623Z,14.21
2022-10-14T20:58:38.846Z,14.21
2022-10-14T21:01:12.246Z,14.21
2022-10-14T21:03:40.500Z,14.21
2022-10-14T21:06:10.030Z,14.18
2022-10-14T21:08:38.009Z,14.17
2022-10-14T21:11:10.507Z,14.16
2022-10-14T21:13:41.583Z,14.15
2022-10-14T21:16:33.633Z,14.14
2022-10-14T21:19:05.837Z,14.14
2022-10-14T21:21:45.558Z,14.12
2022-10-14T21:24:16.918Z,14.11
2022-10-14T21:26:45.151Z,14.09
2022-10-14T21:29:12.562Z,14.09
2022-10-14T21:31:39.864Z,14.05
2022-10-14T21:34:07.441Z,14.06
2022-10-14T21:36:35.757Z,14.07
2022-10-14T21:39:14.664Z,14.06
2022-10-14T21:41:42.317Z,14.04
2022-10-14T21:44:11.156Z,14.05
2022-10-14T21:46:38.290Z,14.00
2022-10-14T21:49:05.326Z,14.01
2022-10-14T21:51:33.229Z,14.02
2022-10-14T21:54:00.569Z,13.98
2022-10-14T21:56:27.763Z,13.97
2022-10-14T21:58:54.954Z,13.81
2022-10-14T22:01:26.269Z,13.90
2022-10-14T22:04:01.363Z,13.92
2022-10-14T22:06:29.295Z,13.91
2022-10-14T22:08:58.217Z,13.85
2022-10-14T22:11:28.817Z,13.89
2022-10-14T22:13:57.653Z,13.85
2022-10-14T22:16:25.801Z,13.85
2022-10-14T22:18:54.050Z,13.78
2022-10-14T22:21:26.023Z,13.79
2022-10-14T22:23:53.565Z,13.78
2022-10-14T22:26:23.899Z,13.77
2022-10-14T22:29:23.799Z,13.74
2022-10-14T22:31:50.709Z,13.73
2022-10-14T22:34:18.886Z,13.76
2022-10-14T22:36:46.187Z,13.72
2022-10-14T22:39:16.023Z,13.72
2022-10-14T22:41:43.102Z,13.70
2022-10-14T22:44:10.525Z,13.72
2022-10-14T22:46:39.783Z,13.70
2022-10-14T22:49:07.367Z,13.70
2022-10-14T22:51:37.650Z,13.72
2022-10-14T22:54:04.860Z,13.64
2022-10-14T22:56:32.731Z,13.68
2022-10-14T22:59:03.260Z,13.65
2022-10-14T23:01:31.339Z,13.67
2022-10-14T23:03:59.307Z,13.61
2022-10-14T23:06:27.345Z,13.63
2022-10-14T23:08:54.802Z,13.62
2022-10-14T23:11:23.897Z,13.62
2022-10-14T23:13:51.289Z,13.61
2022-10-14T23:16:24.153Z,13.62
2022-10-14T23:18:51.856Z,13.52
2022-10-14T23:21:25.507Z,13.54
2022-10-14T23:23:53.339Z,13.55
2022-10-14T23:26:23.175Z,13.52
2022-10-14T23:28:55.384Z,13.52
2022-10-14T23:31:25.345Z,13.53
2022-10-14T23:33:52.753Z,13.54
2022-10-14T23:36:21.550Z,13.54
2022-10-14T23:38:49.314Z,13.55
2022-10-14T23:41:16.601Z,13.53
2022-10-14T23:43:43.798Z,13.54
2022-10-14T23:46:11.577Z,13.51
2022-10-14T23:48:38.867Z,13.50
2022-10-14T23:51:07.079Z,13.53
2022-10-14T23:53:34.940Z,13.54
2022-10-14T23:56:02.857Z,13.54
2022-10-14T23:58:30.236Z,13.51
